Time;durP1;ratioP1;P1;durP2;ratioP2;P2;SDS_P1;SDS_P2;PMS_P1;PMS_P2;Temp;Humidity;BMP_temperature;BMP_pressure;BME280_temperature;BME280_humidity;BME280_pressure;Samples;Min_cycle;Max_cycle;Signal;HPM_P1;HPM_P2
2022/12/05 00:00:26;;;;;;;23.55;14.75;;;4.60;99.90;;;;;;5074396;28;20052;-61
2022/12/05 00:02:53;;;;;;;24.27;15.25;;;4.60;99.90;;;;;;5073272;28;20523;-61
2022/12/05 00:05:21;;;;;;;25.25;14.23;;;4.60;99.90;;;;;;5074260;28;20045;-61
2022/12/05 00:07:48;;;;;;;23.25;14.30;;;4.60;99.90;;;;;;5072864;28;20049;-61
2022/12/05 00:10:15;;;;;;;25.17;14.10;;;4.60;99.90;;;;;;5073318;28;20052;-61
2022/12/05 00:12:42;;;;;;;23.15;13.90;;;4.60;99.90;;;;;;5074482;28;20048;-61
2022/12/05 00:15:11;;;;;;;23.58;13.80;;;4.60;99.90;;;;;;5074102;28;20053;-61
2022/12/05 00:17:39;;;;;;;25.95;14.50;;;4.60;99.90;;;;;;5073775;28;20082;-62
2022/12/05 00:20:08;;;;;;;24.42;13.40;;;4.70;99.90;;;;;;5073044;28;20087;-61
2022/12/05 00:22:37;;;;;;;21.20;13.80;;;4.70;99.90;;;;;;5072482;28;20079;-61
2022/12/05 00:25:06;;;;;;;27.37;16.20;;;4.70;99.90;;;;;;5073085;28;20122;-61
2022/12/05 00:27:32;;;;;;;29.02;14.90;;;4.80;99.90;;;;;;5072023;28;20047;-61
2022/12/05 00:29:59;;;;;;;25.02;14.75;;;4.80;99.90;;;;;;5072121;28;20061;-61
2022/12/05 00:32:28;;;;;;;29.83;16.48;;;4.80;99.90;;;;;;5072682;28;20117;-62
2022/12/05 00:34:55;;;;;;;27.17;16.10;;;4.80;99.90;;;;;;5072389;28;20094;-62
2022/12/05 00:37:22;;;;;;;28.67;15.55;;;4.80;99.90;;;;;;5073203;28;20040;-62
2022/12/05 00:39:50;;;;;;;24.75;15.60;;;4.80;99.90;;;;;;5073888;28;20466;-62
2022/12/05 00:42:17;;;;;;;27.23;15.73;;;4.80;99.90;;;;;;5072446;28;20435;-61
2022/12/05 00:44:44;;;;;;;29.60;16.95;;;4.90;99.90;;;;;;5073101;28;20056;-61
2022/12/05 00:47:11;;;;;;;32.33;16.98;;;4.90;99.90;;;;;;5072243;28;20484;-61
2022/12/05 00:49:38;;;;;;;26.45;16.05;;;4.90;99.90;;;;;;5073362;28;20051;-61
2022/12/05 00:52:05;;;;;;;29.88;18.38;;;4.90;99.90;;;;;;5073126;28;20049;-61
2022/12/05 00:54:32;;;;;;;30.58;17.65;;;4.90;99.90;;;;;;5073540;28;20125;-61
2022/12/05 00:57:00;;;;;;;31.48;17.55;;;4.90;99.90;;;;;;5071241;28;20051;-61
2022/12/05 00:59:27;;;;;;;31.02;17.25;;;4.90;99.90;;;;;;5071184;28;20052;-61
2022/12/05 01:01:54;;;;;;;31.38;17.35;;;4.90;99.90;;;;;;5072023;28;20057;-61
2022/12/05 01:04:23;;;;;;;27.63;15.95;;;5.00;99.90;;;;;;5073240;28;20044;-61
2022/12/05 01:06:53;;;;;;;26.65;16.20;;;4.90;99.90;;;;;;5072157;28;20053;-62
2022/12/05 01:09:21;;;;;;;28.27;16.80;;;4.90;99.90;;;;;;5071687;28;20048;-62
2022/12/05 01:11:48;;;;;;;24.60;15.55;;;5.00;99.90;;;;;;5070246;28;20586;-62
2022/12/05 01:14:19;;;;;;;28.90;15.98;;;5.00;99.90;;;;;;5072794;28;20048;-62
2022/12/05 01:16:48;;;;;;;25.45;15.27;;;5.00;99.90;;;;;;5071538;28;20052;-61
2022/12/05 01:19:19;;;;;;;25.48;15.27;;;5.00;99.90;;;;;;5072517;28;20067;-61
2022/12/05 01:21:46;;;;;;;28.13;15.57;;;5.00;99.90;;;;;;5073031;28;20044;-61
2022/12/05 01:24:15;;;;;;;23.20;14.65;;;5.00;99.90;;;;;;5072859;28;20052;-61
2022/12/05 01:26:43;;;;;;;23.77;14.57;;;5.00;99.90;;;;;;5070854;28;20060;-61
2022/12/05 01:29:10;;;;;;;21.83;13.60;;;5.10;99.90;;;;;;5069346;28;20052;-61
2022/12/05 01:31:38;;;;;;;22.67;12.18;;;5.10;99.90;;;;;;5070678;28;20048;-61
2022/12/05 01:34:07;;;;;;;22.58;12.57;;;5.10;99.90;;;;;;5068945;28;20045;-61
2022/12/05 01:36:34;;;;;;;20.42;13.18;;;5.10;99.90;;;;;;5072384;28;20045;-61
2022/12/05 01:39:01;;;;;;;20.02;12.65;;;5.20;99.90;;;;;;5072176;28;20040;-61
2022/12/05 01:41:31;;;;;;;23.52;11.85;;;5.10;99.90;;;;;;5071981;28;20041;-61
2022/12/05 01:44:00;;;;;;;22.10;12.93;;;5.20;99.90;;;;;;5071019;28;20071;-61
2022/12/05 01:46:29;;;;;;;17.58;10.43;;;5.20;99.90;;;;;;5071349;28;20048;-61
2022/12/05 01:49:03;;;;;;;16.90;10.85;;;5.20;99.90;;;;;;5071530;28;20048;-61
2022/12/05 01:51:32;;;;;;;17.30;10.88;;;5.30;99.90;;;;;;5072369;28;20051;-61
2022/12/05 01:54:00;;;;;;;18.30;11.82;;;5.20;99.90;;;;;;5071827;28;20071;-61
2022/12/05 01:56:27;;;;;;;19.45;11.18;;;5.30;99.90;;;;;;5072353;28;20492;-62
2022/12/05 01:58:55;;;;;;;17.15;10.98;;;5.30;99.90;;;;;;5067958;28;20594;-62
2022/12/05 02:01:22;;;;;;;17.63;10.65;;;5.30;99.90;;;;;;5070619;28;20060;-62
2022/12/05 02:03:51;;;;;;;15.68;10.43;;;5.30;99.90;;;;;;5072259;28;20051;-61
2022/12/05 02:06:21;;;;;;;17.48;10.30;;;5.40;99.90;;;;;;5071692;28;20442;-62
2022/12/05 02:08:49;;;;;;;16.93;9.60;;;5.30;99.90;;;;;;5070823;28;20048;-61
2022/12/05 02:11:16;;;;;;;17.77;9.57;;;5.40;99.90;;;;;;5070906;28;20056;-61
2022/12/05 02:13:58;;;;;;;14.68;9.95;;;5.40;99.90;;;;;;5071994;28;20131;-62
2022/12/05 02:16:37;;;;;;;16.23;9.43;;;5.30;99.90;;;;;;5070248;28;20048;-61
2022/12/05 02:19:51;;;;;;;16.83;9.30;;;5.40;99.90;;;;;;5071139;28;20476;-62
2022/12/05 02:22:42;;;;;;;15.82;9.90;;;5.40;99.90;;;;;;5033067;28;20044;-61
2022/12/05 02:25:34;;;;;;;16.40;9.35;;;5.30;99.90;;;;;;5071044;28;20059;-62
2022/12/05 02:28:19;;;;;;;14.15;9.02;;;5.30;99.90;;;;;;5036801;28;20040;-61
2022/12/05 02:30:54;;;;;;;11.15;7.63;;;5.30;99.90;;;;;;5069961;28;20064;-61
2022/12/05 02:33:29;;;;;;;11.77;7.63;;;5.30;99.90;;;;;;5071717;28;20094;-61
2022/12/05 02:36:03;;;;;;;13.38;7.30;;;5.30;99.90;;;;;;5070471;28;20427;-61
2022/12/05 02:38:36;;;;;;;14.00;8.10;;;5.30;99.90;;;;;;5071089;28;20048;-61
2022/12/05 02:41:12;;;;;;;12.32;8.20;;;5.30;99.90;;;;;;5071540;28;20048;-61
2022/12/05 02:43:44;;;;;;;14.68;8.48;;;5.30;99.90;;;;;;5069843;28;20059;-61
2022/12/05 02:46:16;;;;;;;11.93;7.53;;;5.30;99.90;;;;;;5071561;28;20093;-61
2022/12/05 02:48:46;;;;;;;12.18;7.50;;;5.30;99.90;;;;;;5070286;28;20094;-62
2022/12/05 02:51:17;;;;;;;11.68;8.05;;;5.30;99.90;;;;;;5071061;28;20090;-61
2022/12/05 02:53:46;;;;;;;13.82;7.88;;;5.20;99.90;;;;;;5069710;28;20048;-62
2022/12/05 02:56:14;;;;;;;12.18;7.50;;;5.20;99.90;;;;;;5070702;28;20102;-62
2022/12/05 02:58:45;;;;;;;11.05;7.38;;;5.20;99.90;;;;;;5071013;28;20098;-62
2022/12/05 03:01:14;;;;;;;17.13;7.82;;;5.20;99.90;;;;;;5069633;28;20045;-61
2022/12/05 03:03:41;;;;;;;9.93;7.25;;;5.20;99.90;;;;;;5071646;28;20070;-61
2022/12/05 03:06:13;;;;;;;11.90;7.05;;;5.20;99.90;;;;;;5071044;28;20094;-61
2022/12/05 03:08:43;;;;;;;12.35;6.43;;;5.20;99.90;;;;;;5068663;28;20056;-61
2022/12/05 03:11:10;;;;;;;11.50;7.22;;;5.20;99.90;;;;;;5071049;28;20044;-62
2022/12/05 03:13:42;;;;;;;9.30;6.95;;;5.20;99.90;;;;;;5068376;28;20053;-61
2022/12/05 03:16:15;;;;;;;11.07;7.20;;;5.20;99.90;;;;;;5070186;28;20045;-61
2022/12/05 03:18:47;;;;;;;11.77;8.38;;;5.20;99.90;;;;;;5070756;28;20092;-61
2022/12/05 03:21:22;;;;;;;11.40;6.72;;;5.20;99.90;;;;;;5071425;28;20408;-61
2022/12/05 03:23:53;;;;;;;11.30;6.47;;;5.20;99.90;;;;;;5071561;28;20074;-61
2022/12/05 03:26:36;;;;;;;11.63;7.45;;;5.20;99.90;;;;;;5070885;28;20044;-60
2022/12/05 03:29:20;;;;;;;12.15;7.88;;;5.20;99.90;;;;;;5072231;28;20094;-61
2022/12/05 03:31:55;;;;;;;11.13;7.30;;;5.20;99.90;;;;;;5073998;28;20067;-61
2022/12/05 03:34:32;;;;;;;11.30;7.03;;;5.20;99.90;;;;;;5073372;28;20078;-61
2022/12/05 03:37:03;;;;;;;11.73;7.68;;;5.20;99.90;;;;;;5074942;28;20059;-61
2022/12/05 03:39:36;;;;;;;10.73;7.65;;;5.10;99.90;;;;;;5072706;28;20097;-62
2022/12/05 03:42:10;;;;;;;10.90;6.90;;;5.10;99.90;;;;;;5073081;28;20044;-62
2022/12/05 03:44:46;;;;;;;12.50;7.25;;;5.10;99.90;;;;;;5073492;28;20496;-61
2022/12/05 03:47:20;;;;;;;13.32;7.22;;;5.20;99.90;;;;;;5073898;28;20045;-61
2022/12/05 03:49:51;;;;;;;15.15;8.52;;;5.10;99.90;;;;;;5073517;28;20083;-61
2022/12/05 03:52:24;;;;;;;12.90;7.78;;;5.20;99.90;;;;;;5072057;28;20040;-62
2022/12/05 03:54:55;;;;;;;11.98;7.85;;;5.10;99.90;;;;;;5072259;28;20485;-62
2022/12/05 03:57:26;;;;;;;11.75;7.88;;;5.10;99.90;;;;;;5073343;28;20093;-62
2022/12/05 03:59:57;;;;;;;12.75;8.23;;;5.10;99.90;;;;;;5074218;28;20083;-62
2022/12/05 04:02:31;;;;;;;12.32;7.78;;;5.10;99.90;;;;;;5073716;28;20492;-62
2022/12/05 04:05:03;;;;;;;14.90;8.65;;;5.10;99.90;;;;;;5073437;28;20041;-62
2022/12/05 04:07:35;;;;;;;13.50;8.57;;;5.10;99.90;;;;;;5073068;28;20048;-62
2022/12/05 04:10:05;;;;;;;13.82;7.90;;;5.10;99.90;;;;;;5071313;28;20052;-61
2022/12/05 04:12:35;;;;;;;13.38;8.75;;;5.10;99.90;;;;;;5073207;28;20052;-61
2022/12/05 04:15:05;;;;;;;24.63;8.48;;;5.10;99.90;;;;;;5072214;28;20052;-62
2022/12/05 04:17:38;;;;;;;11.52;8.18;;;5.10;99.90;;;;;;5072874;28;20492;-61
2022/12/05 04:22:57;;;;;;;12.55;8.40;;;5.10;99.90;;;;;;5072500;28;20041;-61
2022/12/05 04:25:32;;;;;;;12.38;8.32;;;5.10;99.90;;;;;;5070967;28;20056;-61
2022/12/05 04:28:13;;;;;;;13.30;8.25;;;5.10;99.90;;;;;;5073988;28;20040;-61
2022/12/05 04:30:46;;;;;;;12.30;7.93;;;5.10;99.90;;;;;;5073275;28;20052;-62
2022/12/05 04:33:23;;;;;;;14.43;8.00;;;5.10;99.90;;;;;;5073908;28;20432;-62
2022/12/05 04:35:54;;;;;;;16.23;8.73;;;5.10;99.90;;;;;;5104853;28;20056;-63
2022/12/05 04:38:25;;;;;;;12.93;8.27;;;5.10;99.90;;;;;;5072818;28;20052;-62
2022/12/05 04:40:57;;;;;;;13.32;8.13;;;5.10;99.90;;;;;;5070699;28;20055;-61
2022/12/05 04:43:26;;;;;;;13.60;8.40;;;5.20;99.90;;;;;;5073213;28;20049;-62
2022/12/05 04:45:57;;;;;;;13.32;8.20;;;5.10;99.90;;;;;;5073378;28;20052;-61
2022/12/05 04:48:26;;;;;;;;;;;5.20;99.90;;;;;;5074199;28;20049;-62
2022/12/05 04:50:55;;;;;;;13.13;7.47;;;5.20;99.90;;;;;;5071870;28;19999;-62
2022/12/05 04:53:26;;;;;;;12.95;9.00;;;5.20;99.90;;;;;;5073489;28;20052;-62
2022/12/05 04:55:55;;;;;;;14.70;9.82;;;5.10;99.90;;;;;;5072365;28;20040;-62
2022/12/05 04:58:25;;;;;;;13.50;8.63;;;5.20;99.90;;;;;;5071266;28;20405;-62
2022/12/05 05:00:59;;;;;;;11.15;7.88;;;5.20;99.90;;;;;;5072295;28;20056;-62
2022/12/05 05:03:32;;;;;;;17.83;9.23;;;5.20;99.90;;;;;;5071833;28;20048;-63
2022/12/05 05:05:59;;;;;;;12.38;8.27;;;5.20;99.90;;;;;;5072801;28;20102;-62
2022/12/05 05:08:28;;;;;;;12.35;7.70;;;5.20;99.90;;;;;;5073218;28;20063;-62
2022/12/05 05:11:09;;;;;;;15.15;8.18;;;5.20;99.90;;;;;;5070973;28;20076;-62
2022/12/05 05:13:36;;;;;;;;;;;5.20;99.90;;;;;;5073546;28;20519;-63
2022/12/05 05:16:03;;;;;;;12.55;7.43;;;5.20;99.90;;;;;;5072848;28;20392;-63
2022/12/05 05:18:31;;;;;;;13.32;7.35;;;5.20;99.90;;;;;;5071462;28;20052;-62
2022/12/05 05:20:59;;;;;;;11.88;7.78;;;5.20;99.90;;;;;;5070664;28;20097;-63
2022/12/05 05:23:26;;;;;;;14.20;7.82;;;5.20;99.90;;;;;;5071946;28;20056;-62
2022/12/05 05:25:53;;;;;;;13.15;7.53;;;5.20;99.90;;;;;;5071326;28;20048;-63
2022/12/05 05:28:21;;;;;;;14.13;7.95;;;5.20;99.90;;;;;;5070503;28;20052;-62
2022/12/05 05:30:48;;;;;;;14.05;8.18;;;5.20;99.90;;;;;;5071395;28;20113;-63
2022/12/05 05:33:15;;;;;;;14.70;8.90;;;5.20;99.90;;;;;;5072202;28;20059;-63
2022/12/05 05:35:44;;;;;;;14.27;8.20;;;5.20;99.90;;;;;;5067688;28;20059;-62
2022/12/05 05:38:10;;;;;;;13.88;8.20;;;5.20;99.90;;;;;;5057931;28;20485;-62
2022/12/05 05:40:37;;;;;;;14.48;8.40;;;5.20;99.90;;;;;;5066228;28;20559;-63
2022/12/05 05:43:04;;;;;;;14.82;8.40;;;5.20;99.90;;;;;;5064915;28;20403;-61
2022/12/05 05:45:31;;;;;;;10.52;7.57;;;5.20;99.90;;;;;;5067333;28;20051;-63
2022/12/05 05:47:58;;;;;;;19.00;7.82;;;5.20;99.90;;;;;;5066404;28;20052;-62
2022/12/05 05:50:25;;;;;;;15.45;7.82;;;5.20;99.90;;;;;;5065340;28;20075;-62
2022/12/05 05:52:53;;;;;;;13.55;8.05;;;5.20;99.90;;;;;;5067854;28;20446;-62
2022/12/05 05:55:20;;;;;;;13.63;8.10;;;5.20;99.90;;;;;;5069217;28;20047;-62
2022/12/05 05:57:47;;;;;;;12.27;7.50;;;5.20;99.90;;;;;;5067150;28;20161;-62
2022/12/05 06:00:15;;;;;;;11.15;7.80;;;5.20;99.90;;;;;;5068703;28;20040;-62
2022/12/05 06:02:42;;;;;;;12.02;7.95;;;5.10;99.90;;;;;;5065189;28;20045;-62
2022/12/05 06:05:09;;;;;;;12.75;7.05;;;5.20;99.90;;;;;;5064894;28;20537;-62
2022/12/05 06:07:36;;;;;;;14.43;7.47;;;5.20;99.90;;;;;;5065954;28;20107;-62
2022/12/05 06:10:05;;;;;;;15.45;7.45;;;5.20;99.90;;;;;;5067739;28;20048;-63
2022/12/05 06:12:32;;;;;;;12.15;7.38;;;5.20;99.90;;;;;;5066853;28;20393;-63
2022/12/05 06:14:59;;;;;;;13.50;6.78;;;5.20;99.90;;;;;;5061522;28;20091;-62
2022/12/05 06:17:26;;;;;;;12.45;7.15;;;5.20;99.90;;;;;;5064048;28;20090;-62
2022/12/05 06:19:53;;;;;;;13.18;8.00;;;5.20;99.90;;;;;;5070034;28;20048;-63
2022/12/05 06:22:20;;;;;;;12.98;6.50;;;5.20;99.90;;;;;;5063690;28;20048;-63
2022/12/05 06:24:47;;;;;;;12.77;6.90;;;5.20;99.90;;;;;;5064334;28;20053;-62
2022/12/05 06:27:15;;;;;;;12.77;6.88;;;5.20;99.90;;;;;;5061509;28;20053;-62
2022/12/05 06:29:42;;;;;;;10.25;6.03;;;5.20;99.90;;;;;;5068088;28;20049;-62
2022/12/05 06:32:09;;;;;;;12.30;7.07;;;5.20;99.90;;;;;;5063193;28;20052;-62
2022/12/05 06:34:36;;;;;;;15.27;8.55;;;5.20;99.90;;;;;;5064894;28;20502;-63
2022/12/05 06:37:03;;;;;;;13.68;7.30;;;5.30;99.90;;;;;;5063945;28;20519;-61
2022/12/05 06:39:30;;;;;;;12.32;7.25;;;5.30;99.90;;;;;;5064478;28;20709;-61
2022/12/05 06:41:57;;;;;;;12.93;7.43;;;5.20;99.90;;;;;;5067745;28;20447;-61
2022/12/05 06:44:27;;;;;;;12.57;7.57;;;5.30;99.90;;;;;;5063978;28;20056;-62
2022/12/05 06:46:54;;;;;;;15.73;7.72;;;5.30;99.90;;;;;;5069973;28;20123;-62
2022/12/05 06:49:24;;;;;;;13.10;8.35;;;5.30;99.90;;;;;;5063064;28;20044;-62
2022/12/05 06:51:52;;;;;;;14.23;8.20;;;5.30;99.90;;;;;;5064619;28;20044;-62
2022/12/05 06:54:19;;;;;;;15.13;7.80;;;5.20;99.90;;;;;;5063438;28;20389;-62
2022/12/05 06:56:45;;;;;;;18.70;8.85;;;5.20;99.90;;;;;;5064849;28;20051;-62
2022/12/05 06:59:12;;;;;;;17.65;7.70;;;5.20;99.90;;;;;;5064739;28;20057;-63
2022/12/05 07:01:40;;;;;;;16.95;9.00;;;5.20;99.90;;;;;;5069013;28;20052;-62
2022/12/05 07:04:13;;;;;;;15.07;7.90;;;5.20;99.90;;;;;;5071879;28;20076;-61
2022/12/05 07:06:41;;;;;;;19.92;8.50;;;6.20;99.90;;;;;;5073747;28;20184;-61
2022/12/05 07:09:08;;;;;;;16.77;8.52;;;5.20;99.90;;;;;;5072614;28;20119;-60
2022/12/05 07:11:35;;;;;;;15.02;8.07;;;5.20;99.90;;;;;;5073326;28;20059;-60
2022/12/05 07:14:02;;;;;;;20.52;8.80;;;5.30;99.90;;;;;;5074155;28;20093;-61
2022/12/05 07:16:29;;;;;;;20.88;9.13;;;5.20;99.90;;;;;;5071572;28;20049;-61
2022/12/05 07:18:58;;;;;;;16.92;8.35;;;5.30;99.90;;;;;;5073366;28;20109;-61
2022/12/05 07:21:25;;;;;;;11.88;7.63;;;5.30;99.90;;;;;;5073731;28;20484;-62
2022/12/05 07:23:52;;;;;;;18.75;8.70;;;5.30;99.90;;;;;;5074894;28;20044;-62
2022/12/05 07:26:21;;;;;;;19.52;8.02;;;5.30;99.90;;;;;;5072900;28;20048;-62
2022/12/05 07:28:49;;;;;;;15.13;8.80;;;5.30;99.90;;;;;;5072872;28;20055;-62
2022/12/05 07:31:17;;;;;;;13.55;7.72;;;5.30;99.90;;;;;;5074657;28;20048;-63
2022/12/05 07:33:44;;;;;;;16.88;8.55;;;5.70;99.90;;;;;;5074047;28;20049;-62
2022/12/05 07:36:15;;;;;;;15.25;8.07;;;5.30;99.90;;;;;;5073399;28;20037;-63
2022/12/05 07:38:42;;;;;;;16.23;8.00;;;5.30;99.90;;;;;;5074036;28;20406;-63
2022/12/05 07:41:11;;;;;;;15.63;7.15;;;5.30;99.90;;;;;;5073459;28;20055;-63
2022/12/05 07:43:38;;;;;;;13.57;8.02;;;5.30;99.90;;;;;;5074278;28;20068;-63
2022/12/05 07:46:07;;;;;;;15.52;7.60;;;5.30;99.90;;;;;;5074042;28;20033;-63
2022/12/05 07:48:33;;;;;;;14.32;7.75;;;5.40;99.90;;;;;;5074416;28;20056;-63
2022/12/05 07:51:01;;;;;;;15.43;7.95;;;5.40;99.90;;;;;;5073210;28;20407;-63
2022/12/05 07:53:30;;;;;;;13.10;7.47;;;5.40;99.90;;;;;;5073593;28;20088;-62
2022/12/05 07:56:00;;;;;;;14.40;7.57;;;5.40;99.90;;;;;;5073871;28;20714;-62
2022/12/05 07:58:28;;;;;;;13.23;7.28;;;5.40;99.90;;;;;;5072925;28;20087;-62
2022/12/05 08:00:55;;;;;;;14.73;6.72;;;5.40;99.90;;;;;;5073406;28;20044;-63
2022/12/05 08:03:22;;;;;;;14.73;6.90;;;5.40;99.90;;;;;;5072925;28;20061;-62
2022/12/05 08:05:49;;;;;;;12.73;7.10;;;5.40;99.90;;;;;;5072706;28;20051;-62
2022/12/05 08:08:16;;;;;;;13.30;7.05;;;5.50;99.90;;;;;;5073197;28;20048;-63
2022/12/05 08:10:45;;;;;;;13.63;7.00;;;5.40;99.90;;;;;;5072689;28;20060;-63
2022/12/05 08:13:13;;;;;;;10.35;6.57;;;5.50;99.90;;;;;;5071571;28;20053;-63
2022/12/05 08:15:40;;;;;;;12.73;6.32;;;5.40;99.90;;;;;;5072914;28;20040;-62
2022/12/05 08:18:08;;;;;;;12.25;6.68;;;5.50;99.90;;;;;;5073810;28;20041;-62
2022/12/05 08:20:35;;;;;;;14.25;7.97;;;5.50;99.90;;;;;;5070287;28;20052;-63
2022/12/05 08:23:03;;;;;;;11.55;6.93;;;5.40;99.90;;;;;;5073087;28;20940;-62
2022/12/05 08:25:30;;;;;;;13.35;7.28;;;5.40;99.90;;;;;;5074086;28;20048;-62
2022/12/05 08:27:58;;;;;;;10.88;7.20;;;5.40;99.90;;;;;;5073269;28;20131;-63
2022/12/05 08:30:25;;;;;;;12.82;7.28;;;5.50;99.90;;;;;;5073958;28;20474;-62
2022/12/05 08:32:52;;;;;;;13.25;6.57;;;5.50;99.90;;;;;;5072659;28;20044;-62
2022/12/05 08:35:19;;;;;;;16.00;7.63;;;5.50;99.90;;;;;;5070300;28;20049;-62
2022/12/05 08:37:46;;;;;;;11.88;6.93;;;5.40;99.90;;;;;;5073577;28;20098;-63
2022/12/05 08:40:13;;;;;;;11.98;7.40;;;5.40;99.90;;;;;;5072752;28;20114;-62
2022/12/05 08:42:40;;;;;;;15.80;7.40;;;5.40;99.90;;;;;;5071820;28;20529;-61
2022/12/05 08:45:09;;;;;;;15.68;6.70;;;5.50;99.90;;;;;;5073452;28;20052;-62
2022/12/05 08:47:36;;;;;;;10.68;7.05;;;5.40;99.90;;;;;;5071006;28;20396;-62
2022/12/05 08:50:03;;;;;;;12.43;7.32;;;5.40;99.90;;;;;;5072757;28;20511;-61
2022/12/05 08:52:30;;;;;;;14.32;6.80;;;5.40;99.90;;;;;;5073446;28;20090;-62
2022/12/05 08:54:57;;;;;;;12.93;6.72;;;5.40;99.90;;;;;;5072332;28;20121;-61
2022/12/05 08:57:24;;;;;;;17.70;6.97;;;5.40;99.90;;;;;;5072625;28;20047;-61
2022/12/05 08:59:51;;;;;;;12.20;7.80;;;5.40;99.90;;;;;;5073174;28;20098;-62
2022/12/05 09:02:19;;;;;;;13.48;8.10;;;5.40;99.90;;;;;;5072406;28;20462;-62
2022/12/05 09:04:50;;;;;;;14.13;8.05;;;5.50;99.90;;;;;;5070766;28;20048;-62
2022/12/05 09:07:17;;;;;;;11.50;7.05;;;5.40;99.90;;;;;;5072935;28;20041;-62
2022/12/05 09:09:44;;;;;;;12.85;7.15;;;5.40;99.90;;;;;;5073100;28;20048;-63
2022/12/05 09:12:12;;;;;;;12.70;7.50;;;5.40;99.90;;;;;;5072422;28;20094;-62
2022/12/05 09:14:39;;;;;;;12.10;7.43;;;5.50;99.90;;;;;;5071712;28;20131;-62
2022/12/05 09:17:06;;;;;;;14.18;6.85;;;5.40;99.90;;;;;;5070942;28;20044;-62
2022/12/05 09:19:34;;;;;;;12.00;7.63;;;5.40;99.90;;;;;;5071686;28;20488;-62
2022/12/05 09:22:01;;;;;;;17.92;7.93;;;5.50;99.90;;;;;;5072859;28;20048;-62
2022/12/05 09:24:28;;;;;;;13.48;7.45;;;5.50;99.90;;;;;;5071213;28;20106;-61
2022/12/05 09:26:55;;;;;;;14.07;7.32;;;5.50;99.90;;;;;;5070185;28;20045;-62
2022/12/05 09:29:24;;;;;;;22.33;8.35;;;5.50;99.90;;;;;;5072914;28;20125;-62
2022/12/05 09:31:52;;;;;;;15.98;8.15;;;5.50;99.90;;;;;;5071023;28;20090;-61
2022/12/05 09:34:19;;;;;;;12.70;6.55;;;5.50;99.90;;;;;;5069833;28;20047;-62
2022/12/05 09:36:51;;;;;;;15.10;7.65;;;5.50;99.90;;;;;;5071405;28;20045;-62
2022/12/05 09:39:19;;;;;;;14.60;8.00;;;5.50;99.90;;;;;;5072171;28;20068;-62
2022/12/05 09:42:17;;;;;;;13.82;8.13;;;5.50;99.90;;;;;;5071457;28;20048;-62
2022/12/05 09:45:00;;;;;;;12.80;8.05;;;5.50;99.90;;;;;;5072174;28;20408;-62
2022/12/05 09:47:43;;;;;;;14.30;7.70;;;5.50;99.90;;;;;;5070638;28;20500;-61
2022/12/05 09:50:18;;;;;;;18.20;8.80;;;5.50;99.90;;;;;;5072527;28;20419;-61
2022/12/05 09:52:59;;;;;;;15.73;7.53;;;5.60;99.90;;;;;;5071602;28;20044;-61
2022/12/05 09:55:31;;;;;;;12.95;8.38;;;5.60;99.90;;;;;;5071253;28;20044;-61
2022/12/05 09:58:00;;;;;;;17.95;9.05;;;5.50;99.90;;;;;;5070862;28;20048;-62
2022/12/05 10:00:30;;;;;;;15.77;8.52;;;5.50;99.90;;;;;;5070490;28;20051;-61
2022/12/05 10:03:08;;;;;;;19.37;8.40;;;5.50;99.90;;;;;;5070830;28;20056;-62
2022/12/05 10:05:40;;;;;;;22.17;9.07;;;5.60;99.90;;;;;;5071952;28;20531;-62
2022/12/05 10:08:17;;;;;;;13.02;7.78;;;5.60;99.90;;;;;;5071446;28;20385;-62
2022/12/05 10:10:54;;;;;;;14.50;7.65;;;5.50;99.90;;;;;;5068931;28;20044;-62
2022/12/05 10:13:37;;;;;;;16.48;8.13;;;5.60;99.90;;;;;;5071615;28;20052;-62
2022/12/05 10:16:09;;;;;;;14.05;8.50;;;5.60;99.90;;;;;;5071865;28;20511;-62
2022/12/05 10:18:41;;;;;;;15.60;8.27;;;5.60;99.90;;;;;;5071802;28;20052;-62
2022/12/05 10:21:16;;;;;;;17.17;8.25;;;5.50;99.90;;;;;;5070312;28;20052;-62
2022/12/05 10:23:53;;;;;;;15.15;8.27;;;5.60;99.90;;;;;;5070964;28;20052;-62
2022/12/05 10:26:21;;;;;;;18.77;10.07;;;5.60;99.90;;;;;;5070829;28;20052;-62
2022/12/05 10:28:52;;;;;;;15.05;8.40;;;5.60;99.90;;;;;;5069851;28;20048;-62
2022/12/05 10:31:25;;;;;;;15.15;8.80;;;5.70;99.90;;;;;;5070808;28;20059;-62
2022/12/05 10:33:58;;;;;;;14.10;8.57;;;5.50;99.90;;;;;;5070796;28;20052;-62
2022/12/05 10:36:25;;;;;;;16.10;8.82;;;5.50;99.90;;;;;;5069091;28;20040;-62
2022/12/05 10:38:56;;;;;;;15.35;8.35;;;5.50;99.90;;;;;;5072459;28;20063;-62
2022/12/05 10:41:23;;;;;;;19.15;8.50;;;5.50;99.90;;;;;;5076189;28;20048;-62
2022/12/05 10:43:51;;;;;;;14.23;8.00;;;5.50;99.90;;;;;;5072850;28;20110;-62
2022/12/05 10:46:18;;;;;;;15.45;8.32;;;5.50;99.90;;;;;;5076008;28;20389;-62
2022/12/05 10:48:45;;;;;;;13.80;8.25;;;5.50;99.90;;;;;;5073813;28;20086;-62
2022/12/05 10:51:14;;;;;;;13.90;8.20;;;5.50;99.90;;;;;;5075576;28;20454;-62
2022/12/05 10:53:44;;;;;;;14.60;8.63;;;5.50;99.90;;;;;;5074559;28;20078;-62
2022/12/05 10:56:42;;;;;;;13.67;7.63;;;5.50;99.90;;;;;;5075013;28;20048;-62
2022/12/05 10:59:11;;;;;;;16.30;7.03;;;5.50;99.90;;;;;;5075047;28;20552;-62
2022/12/05 11:01:45;;;;;;;15.93;8.30;;;5.50;99.90;;;;;;5074624;28;20059;-62
2022/12/05 11:04:21;;;;;;;17.45;7.38;;;5.50;99.90;;;;;;5075018;28;20451;-62
2022/12/05 11:06:55;;;;;;;13.30;7.75;;;5.50;99.90;;;;;;5075469;28;20044;-62
2022/12/05 11:09:25;;;;;;;23.33;7.85;;;5.50;99.90;;;;;;5075393;28;20045;-62
2022/12/05 11:12:05;;;;;;;11.27;7.30;;;5.50;99.90;;;;;;5075007;28;20393;-62
2022/12/05 11:14:34;;;;;;;11.68;7.53;;;5.50;99.90;;;;;;5075375;28;20048;-61
2022/12/05 11:17:04;;;;;;;13.40;7.30;;;5.60;99.90;;;;;;5073194;28;20117;-61
2022/12/05 11:19:32;;;;;;;10.50;7.05;;;5.60;99.90;;;;;;5073898;28;20060;-61
2022/12/05 11:22:00;;;;;;;11.95;7.50;;;5.50;99.90;;;;;;5073988;28;20052;-61
2022/12/05 11:24:29;;;;;;;16.08;7.57;;;5.60;99.90;;;;;;5074397;28;20439;-61
2022/12/05 11:26:57;;;;;;;13.90;6.63;;;5.50;99.90;;;;;;5074025;28;20098;-62
2022/12/05 11:29:32;;;;;;;11.85;5.80;;;5.50;99.90;;;;;;5073935;28;20501;-61
2022/12/05 11:31:59;;;;;;;14.35;6.68;;;5.60;99.90;;;;;;5074407;28;20055;-61
2022/12/05 11:34:31;;;;;;;11.65;6.47;;;5.60;99.90;;;;;;5074896;28;20045;-62
2022/12/05 11:37:02;;;;;;;12.13;6.57;;;5.60;99.90;;;;;;5073732;28;20044;-62
2022/12/05 11:39:29;;;;;;;12.82;6.82;;;5.60;99.90;;;;;;5071440;28;20056;-62
2022/12/05 11:42:18;;;;;;;10.77;6.05;;;5.50;99.90;;;;;;5074918;28;20098;-61
2022/12/05 11:45:12;;;;;;;10.55;7.10;;;5.50;99.90;;;;;;5074162;28;20132;-61
2022/12/05 11:48:06;;;;;;;9.60;5.72;;;5.50;99.90;;;;;;5073232;28;20053;-62
2022/12/05 11:50:42;;;;;;;10.98;6.15;;;5.50;99.90;;;;;;5050958;28;20147;-62
2022/12/05 11:53:39;;;;;;;8.95;5.63;;;5.50;99.90;;;;;;5074085;28;20446;-62
2022/12/05 11:56:21;;;;;;;9.82;4.93;;;5.50;99.90;;;;;;5074112;28;20049;-62
2022/12/05 11:59:00;;;;;;;10.88;5.72;;;5.50;99.90;;;;;;5073237;28;20048;-62
2022/12/05 12:01:40;;;;;;;10.73;6.03;;;5.50;99.90;;;;;;5073294;28;20102;-62
2022/12/05 12:04:34;;;;;;;10.05;5.68;;;5.50;99.90;;;;;;5074255;28;20565;-62
2022/12/05 12:07:13;;;;;;;9.55;5.10;;;5.50;99.90;;;;;;5071819;28;20443;-61
2022/12/05 12:09:47;;;;;;;8.32;5.05;;;5.50;99.90;;;;;;5074518;28;20361;-61
2022/12/05 12:12:25;;;;;;;17.55;4.55;;;5.50;99.90;;;;;;5074433;28;20438;-61
2022/12/05 12:15:03;;;;;;;8.48;4.35;;;5.50;99.90;;;;;;5073561;28;20048;-62
2022/12/05 12:17:41;;;;;;;10.57;4.80;;;5.50;99.90;;;;;;5070794;28;20045;-62
2022/12/05 12:20:33;;;;;;;8.98;4.50;;;5.40;99.90;;;;;;5072496;28;20044;-63
2022/12/05 12:23:15;;;;;;;7.63;4.68;;;5.40;99.90;;;;;;5073205;28;20055;-63
2022/12/05 12:25:51;;;;;;;10.38;4.95;;;5.40;99.90;;;;;;5073069;28;20492;-63
2022/12/05 12:28:31;;;;;;;7.20;4.72;;;5.40;99.90;;;;;;5073167;28;20044;-63
2022/12/05 12:31:09;;;;;;;10.90;5.03;;;5.40;99.90;;;;;;5073018;28;20101;-63
2022/12/05 12:33:43;;;;;;;7.90;4.88;;;5.40;99.90;;;;;;5074070;28;20053;-63
2022/12/05 12:36:16;;;;;;;8.70;4.38;;;5.40;99.90;;;;;;5072256;28;20052;-62
2022/12/05 12:39:02;;;;;;;9.25;5.10;;;5.40;99.90;;;;;;5073657;28;20136;-63
2022/12/05 12:41:46;;;;;;;8.88;5.25;;;5.40;99.90;;;;;;5072016;28;20048;-62
2022/12/05 12:44:36;;;;;;;7.40;3.83;;;5.40;99.90;;;;;;5072387;28;20131;-63
2022/12/05 12:47:07;;;;;;;6.00;4.43;;;5.40;99.90;;;;;;5073452;28;20063;-62
2022/12/05 12:49:49;;;;;;;11.15;4.63;;;5.40;99.90;;;;;;5071895;28;20511;-63
2022/12/05 12:52:20;;;;;;;8.55;4.95;;;5.40;99.90;;;;;;5070000;28;20045;-61
2022/12/05 12:55:01;;;;;;;11.52;4.95;;;5.40;99.90;;;;;;5073269;28;20475;-62
2022/12/05 12:57:33;;;;;;;7.82;4.80;;;5.40;99.90;;;;;;5071468;28;20051;-62
2022/12/05 13:00:09;;;;;;;8.15;4.53;;;5.40;99.90;;;;;;5073382;28;20488;-62
2022/12/05 13:02:42;;;;;;;9.38;5.18;;;5.40;99.90;;;;;;5071033;28;20622;-62
2022/12/05 13:05:23;;;;;;;6.80;3.90;;;5.50;99.90;;;;;;5072252;28;20393;-62
2022/12/05 13:07:54;;;;;;;7.88;3.92;;;5.40;99.90;;;;;;5073334;28;20447;-62